Airport Name : Calgary Intl

Other Name : Calgary Intl

ICAO : CYYC

IATA : YYC

FAA :

Latitude : 51.113888

Longitude : -114.020278

Country : Canada

Local Date and Time : 1/22/2018 9:09:00 AM

 

TAF (Terminal Aerodrome Forecast)

TAF CYYC 221441Z 2215/2312 VRB03KT P6SM FEW150 FEW200 BECMG 2215/2217 26012G22KT BECMG 2218/2220 25010KT FM230300 27006KT P6SM FEW100 RMK NXT FCST BY 221800Z

 

METAR (METeorological Aerodrome Report)

CYYC 221600Z VRB02KT 40SM FEW150 FEW180 M02/M12 A2978 RMK AC1AC1 AC TR SLP136

CYYC 221500Z VRB02KT 20SM FEW150 FEW180 FEW240 M02/M12 A2976 RMK AC1AC1CI1 AC TR AC TR SLP131

CYYC 221400Z 22005KT 15SM FEW150 FEW180 FEW210 M03/M11 A2973 RMK AC1AS1CI1 AC TR AS TR SLP119

CYYC 221300Z 19006KT 15SM FEW150 FEW180 FEW250 M04/M11 A2973 RMK AC1AS1CI1 AS TR SLP118